sensor_id;sensor_type;location;lat;lon;timestamp;pressure;altitude;pressure_sealevel;temperature;humidity
7264;BME280;3673;52.480;13.348;2023-07-13T00:01:28;100815.88;;;25.55;39.43
7264;BME280;3673;52.480;13.348;2023-07-13T00:03:56;100814.03;;;25.70;38.74
7264;BME280;3673;52.480;13.348;2023-07-13T00:06:24;100815.94;;;25.53;39.25
7264;BME280;3673;52.480;13.348;2023-07-13T00:08:51;100817.19;;;25.62;39.43
7264;BME280;3673;52.480;13.348;2023-07-13T00:11:18;100820.84;;;25.75;39.34
7264;BME280;3673;52.480;13.348;2023-07-13T00:13:45;100816.34;;;25.76;38.53
7264;BME280;3673;52.480;13.348;2023-07-13T00:16:13;100831.19;;;25.67;38.98
7264;BME280;3673;52.480;13.348;2023-07-13T00:18:40;100818.63;;;25.53;38.85
7264;BME280;3673;52.480;13.348;2023-07-13T00:21:08;100830.41;;;25.51;39.00
7264;BME280;3673;52.480;13.348;2023-07-13T00:23:39;100818.44;;;25.56;39.47
7264;BME280;3673;52.480;13.348;2023-07-13T00:26:09;100823.22;;;25.66;39.22
7264;BME280;3673;52.480;13.348;2023-07-13T00:28:38;100834.19;;;25.47;38.96
7264;BME280;3673;52.480;13.348;2023-07-13T00:31:05;100829.84;;;25.30;39.40
7264;BME280;3673;52.480;13.348;2023-07-13T00:33:32;100828.81;;;25.33;39.36
7264;BME280;3673;52.480;13.348;2023-07-13T00:35:59;100829.56;;;25.21;39.60
7264;BME280;3673;52.480;13.348;2023-07-13T00:38:28;100819.81;;;25.34;39.83
7264;BME280;3673;52.480;13.348;2023-07-13T00:40:55;100830.09;;;25.55;39.11
7264;BME280;3673;52.480;13.348;2023-07-13T00:43:27;100827.16;;;25.74;38.89
7264;BME280;3673;52.480;13.348;2023-07-13T00:46:20;100826.38;;;25.86;38.91
7264;BME280;3673;52.480;13.348;2023-07-13T00:48:49;100821.31;;;25.68;38.63
7264;BME280;3673;52.480;13.348;2023-07-13T00:51:19;100821.88;;;25.73;39.16
7264;BME280;3673;52.480;13.348;2023-07-13T00:53:50;100828.97;;;25.59;38.77
7264;BME280;3673;52.480;13.348;2023-07-13T00:56:17;100827.41;;;25.55;39.41
7264;BME280;3673;52.480;13.348;2023-07-13T00:58:44;100831.94;;;25.55;39.50
7264;BME280;3673;52.480;13.348;2023-07-13T01:01:11;100827.41;;;25.55;39.16
7264;BME280;3673;52.480;13.348;2023-07-13T01:03:39;100828.69;;;25.64;38.94
7264;BME280;3673;52.480;13.348;2023-07-13T01:06:07;100829.06;;;25.72;38.89
7264;BME280;3673;52.480;13.348;2023-07-13T01:08:34;100829.06;;;25.58;38.99
7264;BME280;3673;52.480;13.348;2023-07-13T01:11:02;100827.91;;;25.62;38.47
7264;BME280;3673;52.480;13.348;2023-07-13T01:13:29;100831.44;;;25.48;39.07
7264;BME280;3673;52.480;13.348;2023-07-13T01:16:00;100837.41;;;25.24;40.02
7264;BME280;3673;52.480;13.348;2023-07-13T01:18:28;100835.91;;;25.04;40.68
7264;BME280;3673;52.480;13.348;2023-07-13T01:21:00;100838.25;;;25.24;40.31
7264;BME280;3673;52.480;13.348;2023-07-13T01:23:29;100841.38;;;24.87;41.34
7264;BME280;3673;52.480;13.348;2023-07-13T01:25:57;100840.34;;;24.74;41.88
7264;BME280;3673;52.480;13.348;2023-07-13T01:28:26;100837.56;;;24.75;41.89
7264;BME280;3673;52.480;13.348;2023-07-13T01:30:54;100846.56;;;24.58;42.46
7264;BME280;3673;52.480;13.348;2023-07-13T01:33:21;100834.31;;;24.86;41.67
7264;BME280;3673;52.480;13.348;2023-07-13T01:35:48;100828.69;;;24.75;41.84
7264;BME280;3673;52.480;13.348;2023-07-13T01:38:20;100828.97;;;24.70;42.24
7264;BME280;3673;52.480;13.348;2023-07-13T01:40:48;100825.41;;;24.85;41.88
7264;BME280;3673;52.480;13.348;2023-07-13T01:43:16;100831.06;;;24.65;42.14
7264;BME280;3673;52.480;13.348;2023-07-13T01:45:43;100835.53;;;24.33;43.05
7264;BME280;3673;52.480;13.348;2023-07-13T01:48:11;100828.22;;;24.21;43.38
7264;BME280;3673;52.480;13.348;2023-07-13T01:50:38;100829.03;;;24.06;43.67
7264;BME280;3673;52.480;13.348;2023-07-13T01:53:05;100825.78;;;24.17;43.64
7264;BME280;3673;52.480;13.348;2023-07-13T01:55:34;100827.59;;;24.16;43.68
7264;BME280;3673;52.480;13.348;2023-07-13T01:58:03;100827.69;;;24.30;43.17
7264;BME280;3673;52.480;13.348;2023-07-13T02:00:30;100832.94;;;24.16;43.59
7264;BME280;3673;52.480;13.348;2023-07-13T02:02:57;100841.25;;;24.27;43.65
7264;BME280;3673;52.480;13.348;2023-07-13T02:05:24;100830.63;;;24.41;43.28
7264;BME280;3673;52.480;13.348;2023-07-13T02:07:51;100832.06;;;24.63;42.41
7264;BME280;3673;52.480;13.348;2023-07-13T02:10:19;100839.44;;;24.28;43.19
7264;BME280;3673;52.480;13.348;2023-07-13T02:12:48;100840.41;;;24.09;43.62
7264;BME280;3673;52.480;13.348;2023-07-13T02:15:16;100833.91;;;24.15;43.69
7264;BME280;3673;52.480;13.348;2023-07-13T02:17:43;100832.50;;;24.08;43.50
7264;BME280;3673;52.480;13.348;2023-07-13T02:20:10;100830.66;;;24.08;43.48
7264;BME280;3673;52.480;13.348;2023-07-13T02:22:37;100839.28;;;23.98;43.83
7264;BME280;3673;52.480;13.348;2023-07-13T02:25:05;100817.69;;;24.18;43.19
7264;BME280;3673;52.480;13.348;2023-07-13T02:27:32;100814.25;;;23.99;43.97
7264;BME280;3673;52.480;13.348;2023-07-13T02:30:00;100797.13;;;24.03;43.57
7264;BME280;3673;52.480;13.348;2023-07-13T02:32:28;100807.72;;;23.56;44.37
7264;BME280;3673;52.480;13.348;2023-07-13T02:34:55;100809.00;;;23.82;44.29
7264;BME280;3673;52.480;13.348;2023-07-13T02:37:22;100817.31;;;23.76;44.27
7264;BME280;3673;52.480;13.348;2023-07-13T02:39:49;100815.22;;;23.65;44.64
7264;BME280;3673;52.480;13.348;2023-07-13T02:42:16;100822.66;;;23.60;45.00
7264;BME280;3673;52.480;13.348;2023-07-13T02:44:43;100822.25;;;23.68;44.96
7264;BME280;3673;52.480;13.348;2023-07-13T02:47:11;100824.22;;;23.64;45.16
7264;BME280;3673;52.480;13.348;2023-07-13T02:49:38;100823.38;;;23.46;45.11
7264;BME280;3673;52.480;13.348;2023-07-13T02:52:06;100825.16;;;23.63;44.89
7264;BME280;3673;52.480;13.348;2023-07-13T02:54:33;100834.41;;;23.73;45.08
7264;BME280;3673;52.480;13.348;2023-07-13T02:57:00;100837.41;;;23.67;45.19
7264;BME280;3673;52.480;13.348;2023-07-13T02:59:27;100839.00;;;23.54;45.66
7264;BME280;3673;52.480;13.348;2023-07-13T03:01:54;100841.75;;;23.85;45.19
7264;BME280;3673;52.480;13.348;2023-07-13T03:04:22;100851.50;;;23.86;45.11
7264;BME280;3673;52.480;13.348;2023-07-13T03:06:49;100864.16;;;23.83;45.83
7264;BME280;3673;52.480;13.348;2023-07-13T03:09:16;100866.13;;;23.79;45.59
7264;BME280;3673;52.480;13.348;2023-07-13T03:11:43;100860.25;;;23.73;45.54
7264;BME280;3673;52.480;13.348;2023-07-13T03:14:10;100856.00;;;23.69;45.75
7264;BME280;3673;52.480;13.348;2023-07-13T03:16:37;100862.00;;;23.56;46.13
7264;BME280;3673;52.480;13.348;2023-07-13T03:19:04;100862.53;;;23.63;45.84
7264;BME280;3673;52.480;13.348;2023-07-13T03:21:33;100859.16;;;23.59;46.13
7264;BME280;3673;52.480;13.348;2023-07-13T03:24:00;100867.41;;;23.72;46.07
7264;BME280;3673;52.480;13.348;2023-07-13T03:26:27;100871.94;;;23.54;46.47
7264;BME280;3673;52.480;13.348;2023-07-13T03:28:54;100872.31;;;23.47;46.99
7264;BME280;3673;52.480;13.348;2023-07-13T03:31:25;100868.69;;;23.31;47.54
7264;BME280;3673;52.480;13.348;2023-07-13T03:33:52;100864.38;;;23.28;47.69
7264;BME280;3673;52.480;13.348;2023-07-13T03:36:22;100874.78;;;23.33;47.66
7264;BME280;3673;52.480;13.348;2023-07-13T03:38:52;100876.22;;;23.40;47.75
7264;BME280;3673;52.480;13.348;2023-07-13T03:41:19;100881.69;;;23.20;48.38
7264;BME280;3673;52.480;13.348;2023-07-13T03:43:46;100879.03;;;23.20;48.94
7264;BME280;3673;52.480;13.348;2023-07-13T03:46:14;100886.38;;;22.80;50.21
7264;BME280;3673;52.480;13.348;2023-07-13T03:48:43;100886.88;;;22.70;50.78
7264;BME280;3673;52.480;13.348;2023-07-13T03:51:11;100896.16;;;22.42;51.75
7264;BME280;3673;52.480;13.348;2023-07-13T03:53:40;100892.06;;;22.54;51.05
7264;BME280;3673;52.480;13.348;2023-07-13T03:56:09;100893.00;;;22.72;50.25
7264;BME280;3673;52.480;13.348;2023-07-13T03:58:38;100894.94;;;22.87;49.90
7264;BME280;3673;52.480;13.348;2023-07-13T04:01:08;100894.16;;;22.85;49.82
7264;BME280;3673;52.480;13.348;2023-07-13T04:03:36;100892.75;;;22.95;49.07
7264;BME280;3673;52.480;13.348;2023-07-13T04:06:16;100882.56;;;23.03;48.86
7264;BME280;3673;52.480;13.348;2023-07-13T04:08:47;100892.31;;;22.68;48.91
7264;BME280;3673;52.480;13.348;2023-07-13T04:11:17;100898.94;;;22.95;48.41
7264;BME280;3673;52.480;13.348;2023-07-13T04:13:44;100902.88;;;22.88;48.43
7264;BME280;3673;52.480;13.348;2023-07-13T04:16:11;100893.13;;;22.87;48.30
7264;BME280;3673;52.480;13.348;2023-07-13T04:18:38;100897.03;;;22.80;48.24
7264;BME280;3673;52.480;13.348;2023-07-13T04:21:06;100899.56;;;22.65;48.80
7264;BME280;3673;52.480;13.348;2023-07-13T04:23:33;100903.59;;;22.54;49.11
7264;BME280;3673;52.480;13.348;2023-07-13T04:26:00;100913.25;;;22.57;49.11
7264;BME280;3673;52.480;13.348;2023-07-13T04:28:28;100897.59;;;22.49;49.43
7264;BME280;3673;52.480;13.348;2023-07-13T04:30:56;100901.75;;;22.38;49.35
7264;BME280;3673;52.480;13.348;2023-07-13T04:33:22;100908.13;;;22.52;49.02
7264;BME280;3673;52.480;13.348;2023-07-13T04:35:50;100908.31;;;22.68;48.92
7264;BME280;3673;52.480;13.348;2023-07-13T04:38:20;100914.53;;;22.48;49.32
7264;BME280;3673;52.480;13.348;2023-07-13T04:40:47;100909.16;;;22.69;48.83
7264;BME280;3673;52.480;13.348;2023-07-13T04:43:14;100909.28;;;22.66;49.20
7264;BME280;3673;52.480;13.348;2023-07-13T04:45:42;100914.22;;;22.92;48.74
7264;BME280;3673;52.480;13.348;2023-07-13T04:48:09;100921.09;;;22.60;49.41
7264;BME280;3673;52.480;13.348;2023-07-13T04:50:37;100925.72;;;22.38;50.00
7264;BME280;3673;52.480;13.348;2023-07-13T04:53:04;100910.06;;;22.86;48.90
7264;BME280;3673;52.480;13.348;2023-07-13T04:55:31;100910.59;;;23.12;48.33
7264;BME280;3673;52.480;13.348;2023-07-13T04:57:58;100919.25;;;22.81;48.98
7264;BME280;3673;52.480;13.348;2023-07-13T05:00:26;100927.00;;;23.04;48.60
7264;BME280;3673;52.480;13.348;2023-07-13T05:02:55;100913.69;;;23.21;47.78
7264;BME280;3673;52.480;13.348;2023-07-13T05:05:21;100919.84;;;23.40;47.42
7264;BME280;3673;52.480;13.348;2023-07-13T05:07:48;100925.91;;;23.61;47.14
7264;BME280;3673;52.480;13.348;2023-07-13T05:10:15;100936.69;;;23.24;47.69
7264;BME280;3673;52.480;13.348;2023-07-13T05:12:42;100934.91;;;23.76;46.72
7264;BME280;3673;52.480;13.348;2023-07-13T05:15:09;100938.53;;;23.57;47.07
7264;BME280;3673;52.480;13.348;2023-07-13T05:17:36;100931.13;;;23.63;46.89
7264;BME280;3673;52.480;13.348;2023-07-13T05:20:08;100930.38;;;23.43;47.45
7264;BME280;3673;52.480;13.348;2023-07-13T05:22:35;100937.56;;;23.76;46.60
7264;BME280;3673;52.480;13.348;2023-07-13T05:25:04;100935.97;;;23.89;46.37
7264;BME280;3673;52.480;13.348;2023-07-13T05:27:31;100950.16;;;23.56;47.16
7264;BME280;3673;52.480;13.348;2023-07-13T05:29:58;100954.16;;;23.82;46.58
7264;BME280;3673;52.480;13.348;2023-07-13T05:32:24;100938.22;;;23.64;46.47
7264;BME280;3673;52.480;13.348;2023-07-13T05:34:51;100950.94;;;23.76;46.39
7264;BME280;3673;52.480;13.348;2023-07-13T05:37:20;100946.09;;;24.17;45.90
7264;BME280;3673;52.480;13.348;2023-07-13T05:39:47;100958.72;;;24.15;45.84
7264;BME280;3673;52.480;13.348;2023-07-13T05:42:13;100958.28;;;24.22;45.22
7264;BME280;3673;52.480;13.348;2023-07-13T05:44:40;100955.22;;;24.13;45.52
7264;BME280;3673;52.480;13.348;2023-07-13T05:47:07;100957.47;;;23.87;46.18
7264;BME280;3673;52.480;13.348;2023-07-13T05:49:34;100962.69;;;24.23;45.06
7264;BME280;3673;52.480;13.348;2023-07-13T05:52:01;100956.41;;;24.24;45.28
7264;BME280;3673;52.480;13.348;2023-07-13T05:54:29;100962.25;;;23.98;45.76
7264;BME280;3673;52.480;13.348;2023-07-13T05:56:56;100964.59;;;24.21;45.58
7264;BME280;3673;52.480;13.348;2023-07-13T05:59:23;100960.34;;;24.00;45.67
7264;BME280;3673;52.480;13.348;2023-07-13T06:01:51;100961.66;;;24.08;45.88
7264;BME280;3673;52.480;13.348;2023-07-13T06:04:18;100960.78;;;24.25;45.24
7264;BME280;3673;52.480;13.348;2023-07-13T06:06:45;100954.38;;;24.12;45.52
7264;BME280;3673;52.480;13.348;2023-07-13T06:09:12;100964.31;;;24.26;45.38
7264;BME280;3673;52.480;13.348;2023-07-13T06:11:40;100956.88;;;24.64;44.75
7264;BME280;3673;52.480;13.348;2023-07-13T06:14:07;100954.28;;;24.62;44.49
7264;BME280;3673;52.480;13.348;2023-07-13T06:16:34;100957.22;;;24.57;44.84
7264;BME280;3673;52.480;13.348;2023-07-13T06:19:01;100956.66;;;24.84;44.23
7264;BME280;3673;52.480;13.348;2023-07-13T06:21:28;100952.22;;;24.19;45.50
7264;BME280;3673;52.480;13.348;2023-07-13T06:23:54;100944.91;;;24.71;44.30
7264;BME280;3673;52.480;13.348;2023-07-13T06:26:21;100935.66;;;25.07;43.70
7264;BME280;3673;52.480;13.348;2023-07-13T06:28:49;100949.28;;;25.19;43.39
7264;BME280;3673;52.480;13.348;2023-07-13T06:31:16;100951.00;;;24.57;44.10
7264;BME280;3673;52.480;13.348;2023-07-13T06:33:43;100943.34;;;24.67;44.28
7264;BME280;3673;52.480;13.348;2023-07-13T06:36:10;100953.44;;;25.24;43.25
7264;BME280;3673;52.480;13.348;2023-07-13T06:38:37;100949.03;;;25.23;43.20
7264;BME280;3673;52.480;13.348;2023-07-13T06:41:06;100942.22;;;24.55;44.04
7264;BME280;3673;52.480;13.348;2023-07-13T06:43:32;100944.19;;;24.67;44.31
7264;BME280;3673;52.480;13.348;2023-07-13T06:46:01;100945.97;;;24.84;43.57
7264;BME280;3673;52.480;13.348;2023-07-13T06:48:28;100951.41;;;24.98;43.44
7264;BME280;3673;52.480;13.348;2023-07-13T06:50:55;100948.59;;;25.31;42.86
7264;BME280;3673;52.480;13.348;2023-07-13T06:53:23;100952.53;;;25.69;42.23
7264;BME280;3673;52.480;13.348;2023-07-13T06:55:50;100954.84;;;26.05;40.75
7264;BME280;3673;52.480;13.348;2023-07-13T06:58:20;100955.19;;;26.13;40.31
7264;BME280;3673;52.480;13.348;2023-07-13T07:00:50;100948.72;;;26.17;39.72
7264;BME280;3673;52.480;13.348;2023-07-13T07:03:19;100950.97;;;26.09;39.54
7264;BME280;3673;52.480;13.348;2023-07-13T07:05:46;100944.03;;;25.47;40.73
7264;BME280;3673;52.480;13.348;2023-07-13T07:08:12;100951.28;;;24.99;42.31
7264;BME280;3673;52.480;13.348;2023-07-13T07:10:40;100954.78;;;25.01;43.57
7264;BME280;3673;52.480;13.348;2023-07-13T07:13:08;100948.84;;;24.64;42.59
7264;BME280;3673;52.480;13.348;2023-07-13T07:15:35;100955.22;;;24.45;43.21
7264;BME280;3673;52.480;13.348;2023-07-13T07:18:02;100949.81;;;24.63;42.39
7264;BME280;3673;52.480;13.348;2023-07-13T07:20:30;100942.75;;;25.08;41.75
7264;BME280;3673;52.480;13.348;2023-07-13T07:22:58;100946.06;;;25.73;40.83
7264;BME280;3673;52.480;13.348;2023-07-13T07:25:25;100953.22;;;26.17;40.36
7264;BME280;3673;52.480;13.348;2023-07-13T07:27:52;100953.72;;;26.23;39.61
7264;BME280;3673;52.480;13.348;2023-07-13T07:30:18;100949.53;;;26.03;40.01
7264;BME280;3673;52.480;13.348;2023-07-13T07:32:45;100955.91;;;25.58;39.70
7264;BME280;3673;52.480;13.348;2023-07-13T07:35:12;100960.75;;;25.82;39.43
7264;BME280;3673;52.480;13.348;2023-07-13T07:37:40;100960.41;;;25.72;39.99
7264;BME280;3673;52.480;13.348;2023-07-13T07:40:08;100962.56;;;25.81;40.03
7264;BME280;3673;52.480;13.348;2023-07-13T07:42:35;100966.41;;;25.91;39.76
7264;BME280;3673;52.480;13.348;2023-07-13T07:45:01;100969.91;;;26.22;39.29
7264;BME280;3673;52.480;13.348;2023-07-13T07:47:28;100964.56;;;26.22;39.59
7264;BME280;3673;52.480;13.348;2023-07-13T07:49:55;100972.41;;;26.25;39.24
7264;BME280;3673;52.480;13.348;2023-07-13T07:52:22;100971.81;;;26.48;38.77
7264;BME280;3673;52.480;13.348;2023-07-13T07:54:51;100970.66;;;26.24;38.96
7264;BME280;3673;52.480;13.348;2023-07-13T07:57:17;100964.53;;;26.50;39.16
7264;BME280;3673;52.480;13.348;2023-07-13T07:59:44;100981.78;;;26.88;37.81
7264;BME280;3673;52.480;13.348;2023-07-13T08:02:11;100982.38;;;26.51;38.69
7264;BME280;3673;52.480;13.348;2023-07-13T08:04:38;100982.34;;;26.37;38.76
7264;BME280;3673;52.480;13.348;2023-07-13T08:07:05;100984.56;;;26.58;37.60
7264;BME280;3673;52.480;13.348;2023-07-13T08:09:32;100982.13;;;26.11;38.96
7264;BME280;3673;52.480;13.348;2023-07-13T08:12:00;100979.69;;;26.51;38.10
7264;BME280;3673;52.480;13.348;2023-07-13T08:14:27;100982.34;;;26.65;37.70
7264;BME280;3673;52.480;13.348;2023-07-13T08:16:53;100983.84;;;26.69;36.58
7264;BME280;3673;52.480;13.348;2023-07-13T08:19:20;100983.09;;;26.39;36.82
7264;BME280;3673;52.480;13.348;2023-07-13T08:21:47;100983.44;;;27.03;35.94
7264;BME280;3673;52.480;13.348;2023-07-13T08:24:14;100981.44;;;27.07;35.76
7264;BME280;3673;52.480;13.348;2023-07-13T08:26:44;100980.47;;;27.08;35.54
7264;BME280;3673;52.480;13.348;2023-07-13T08:29:12;100981.34;;;27.35;35.41
7264;BME280;3673;52.480;13.348;2023-07-13T08:31:39;100994.25;;;26.61;36.77
7264;BME280;3673;52.480;13.348;2023-07-13T08:34:06;100997.47;;;26.80;36.28
7264;BME280;3673;52.480;13.348;2023-07-13T08:36:33;100988.69;;;26.50;36.66
7264;BME280;3673;52.480;13.348;2023-07-13T08:38:59;100996.72;;;26.64;36.85
7264;BME280;3673;52.480;13.348;2023-07-13T08:41:27;101002.38;;;27.02;36.12
7264;BME280;3673;52.480;13.348;2023-07-13T08:43:58;100991.31;;;27.06;35.69
7264;BME280;3673;52.480;13.348;2023-07-13T08:46:33;100987.84;;;27.19;35.65
7264;BME280;3673;52.480;13.348;2023-07-13T08:49:05;100991.56;;;27.16;35.88
7264;BME280;3673;52.480;13.348;2023-07-13T08:51:41;101004.50;;;26.83;35.88
7264;BME280;3673;52.480;13.348;2023-07-13T08:54:19;100994.72;;;26.25;36.49
7264;BME280;3673;52.480;13.348;2023-07-13T08:56:49;101001.34;;;26.34;36.08
7264;BME280;3673;52.480;13.348;2023-07-13T08:59:21;100992.16;;;26.38;35.81
7264;BME280;3673;52.480;13.348;2023-07-13T09:02:18;100995.78;;;26.51;35.98
7264;BME280;3673;52.480;13.348;2023-07-13T09:04:50;101004.09;;;26.32;36.56
7264;BME280;3673;52.480;13.348;2023-07-13T09:07:34;101001.91;;;26.39;35.81
7264;BME280;3673;52.480;13.348;2023-07-13T09:10:14;100993.78;;;27.09;34.95
7264;BME280;3673;52.480;13.348;2023-07-13T09:13:05;101002.75;;;26.96;34.66
7264;BME280;3673;52.480;13.348;2023-07-13T09:15:40;100993.38;;;26.18;36.02
7264;BME280;3673;52.480;13.348;2023-07-13T09:18:14;100987.47;;;27.37;34.24
7264;BME280;3673;52.480;13.348;2023-07-13T09:20:48;100986.78;;;27.48;33.63
7264;BME280;3673;52.480;13.348;2023-07-13T09:23:19;100987.28;;;27.80;32.80
7264;BME280;3673;52.480;13.348;2023-07-13T09:25:49;100984.84;;;28.02;32.89
7264;BME280;3673;52.480;13.348;2023-07-13T09:28:23;100979.16;;;28.32;32.47
7264;BME280;3673;52.480;13.348;2023-07-13T09:30:58;100984.34;;;27.70;32.72
7264;BME280;3673;52.480;13.348;2023-07-13T09:33:29;100977.75;;;28.26;31.56
7264;BME280;3673;52.480;13.348;2023-07-13T09:35:57;100987.03;;;28.22;32.47
7264;BME280;3673;52.480;13.348;2023-07-13T09:38:27;100974.88;;;28.65;30.62
7264;BME280;3673;52.480;13.348;2023-07-13T09:41:14;100971.72;;;28.97;29.05
7264;BME280;3673;52.480;13.348;2023-07-13T09:44:09;100983.44;;;28.47;30.28
7264;BME280;3673;52.480;13.348;2023-07-13T09:46:38;100991.81;;;28.80;28.99
7264;BME280;3673;52.480;13.348;2023-07-13T09:49:10;100993.59;;;28.92;28.18
7264;BME280;3673;52.480;13.348;2023-07-13T09:51:37;101000.22;;;28.63;29.63
7264;BME280;3673;52.480;13.348;2023-07-13T09:54:04;100990.88;;;28.31;29.02
7264;BME280;3673;52.480;13.348;2023-07-13T09:56:32;100994.03;;;28.12;29.87
7264;BME280;3673;52.480;13.348;2023-07-13T09:58:58;100995.75;;;27.61;30.44
7264;BME280;3673;52.480;13.348;2023-07-13T10:01:35;100989.88;;;27.81;30.65
7264;BME280;3673;52.480;13.348;2023-07-13T10:04:02;100995.00;;;27.72;31.04
7264;BME280;3673;52.480;13.348;2023-07-13T10:06:39;100991.34;;;28.12;30.72
7264;BME280;3673;52.480;13.348;2023-07-13T10:09:08;100991.44;;;29.34;28.92
7264;BME280;3673;52.480;13.348;2023-07-13T10:11:36;100995.97;;;29.57;28.83
7264;BME280;3673;52.480;13.348;2023-07-13T10:14:11;100983.03;;;30.30;27.80
7264;BME280;3673;52.480;13.348;2023-07-13T10:16:39;100983.78;;;30.21;27.37
7264;BME280;3673;52.480;13.348;2023-07-13T10:19:13;100987.41;;;29.39;28.16
7264;BME280;3673;52.480;13.348;2023-07-13T10:21:50;100975.84;;;29.85;27.54
7264;BME280;3673;52.480;13.348;2023-07-13T10:24:22;100988.13;;;29.30;28.86
7264;BME280;3673;52.480;13.348;2023-07-13T10:26:54;100993.88;;;28.77;28.80
7264;BME280;3673;52.480;13.348;2023-07-13T10:29:26;100984.31;;;29.56;27.59
7264;BME280;3673;52.480;13.348;2023-07-13T10:31:53;100993.72;;;29.51;27.28
7264;BME280;3673;52.480;13.348;2023-07-13T10:34:22;100995.00;;;29.93;27.39
7264;BME280;3673;52.480;13.348;2023-07-13T10:36:52;100989.97;;;29.64;27.71
7264;BME280;3673;52.480;13.348;2023-07-13T10:39:21;100988.63;;;29.94;27.05
7264;BME280;3673;52.480;13.348;2023-07-13T10:41:53;100989.53;;;30.17;27.38
7264;BME280;3673;52.480;13.348;2023-07-13T10:44:25;101004.06;;;31.04;25.92
7264;BME280;3673;52.480;13.348;2023-07-13T10:46:57;100993.94;;;31.49;24.31
7264;BME280;3673;52.480;13.348;2023-07-13T10:49:27;100990.78;;;30.79;24.83
7264;BME280;3673;52.480;13.348;2023-07-13T10:51:56;100987.50;;;32.14;23.70
7264;BME280;3673;52.480;13.348;2023-07-13T10:54:27;100993.84;;;32.54;22.70
7264;BME280;3673;52.480;13.348;2023-07-13T10:57:18;100980.31;;;32.54;22.26
7264;BME280;3673;52.480;13.348;2023-07-13T10:59:48;100979.53;;;31.28;24.08
7264;BME280;3673;52.480;13.348;2023-07-13T11:02:25;100976.41;;;31.44;23.98
7264;BME280;3673;52.480;13.348;2023-07-13T11:04:54;100977.53;;;31.41;24.25
7264;BME280;3673;52.480;13.348;2023-07-13T11:07:26;100975.91;;;32.33;23.19
7264;BME280;3673;52.480;13.348;2023-07-13T11:09:55;100974.03;;;32.24;22.80
7264;BME280;3673;52.480;13.348;2023-07-13T11:12:52;100975.75;;;32.85;22.11
7264;BME280;3673;52.480;13.348;2023-07-13T11:15:44;100978.19;;;31.66;23.43
7264;BME280;3673;52.480;13.348;2023-07-13T11:18:23;100979.19;;;32.06;23.02
7264;BME280;3673;52.480;13.348;2023-07-13T11:20:51;100990.03;;;30.99;24.53
7264;BME280;3673;52.480;13.348;2023-07-13T11:23:30;100974.03;;;31.19;23.93
7264;BME280;3673;52.480;13.348;2023-07-13T11:25:58;100976.88;;;32.52;22.87
7264;BME280;3673;52.480;13.348;2023-07-13T11:28:29;100971.72;;;31.78;22.88
7264;BME280;3673;52.480;13.348;2023-07-13T11:31:03;100960.38;;;32.04;22.98
7264;BME280;3673;52.480;13.348;2023-07-13T11:33:54;100971.00;;;31.76;23.55
7264;BME280;3673;52.480;13.348;2023-07-13T11:36:29;100971.97;;;32.16;23.47
7264;BME280;3673;52.480;13.348;2023-07-13T11:39:03;100968.41;;;32.76;23.11
7264;BME280;3673;52.480;13.348;2023-07-13T11:41:36;100972.66;;;34.05;21.58
7264;BME280;3673;52.480;13.348;2023-07-13T11:44:18;100967.28;;;33.86;22.25
7264;BME280;3673;52.480;13.348;2023-07-13T11:46:47;100966.84;;;33.81;22.15
7264;BME280;3673;52.480;13.348;2023-07-13T11:49:19;100962.03;;;33.65;22.01
7264;BME280;3673;52.480;13.348;2023-07-13T11:51:47;100964.69;;;33.84;21.49
7264;BME280;3673;52.480;13.348;2023-07-13T11:54:25;100956.59;;;33.65;21.18
7264;BME280;3673;52.480;13.348;2023-07-13T11:56:55;100969.97;;;33.57;20.79
7264;BME280;3673;52.480;13.348;2023-07-13T11:59:23;100960.34;;;32.55;22.10
7264;BME280;3673;52.480;13.348;2023-07-13T12:01:52;100958.38;;;32.57;22.55
7264;BME280;3673;52.480;13.348;2023-07-13T12:04:24;100951.94;;;34.50;20.43
7264;BME280;3673;52.480;13.348;2023-07-13T12:06:57;100956.78;;;34.10;20.82
7264;BME280;3673;52.480;13.348;2023-07-13T12:09:28;100954.94;;;34.84;20.20
7264;BME280;3673;52.480;13.348;2023-07-13T12:11:57;100956.31;;;35.33;19.69
7264;BME280;3673;52.480;13.348;2023-07-13T12:14:27;100950.56;;;34.74;20.04
7264;BME280;3673;52.480;13.348;2023-07-13T12:16:55;100949.84;;;34.99;20.12
7264;BME280;3673;52.480;13.348;2023-07-13T12:19:24;100945.44;;;33.58;21.62
7264;BME280;3673;52.480;13.348;2023-07-13T12:21:56;100953.00;;;32.67;22.29
7264;BME280;3673;52.480;13.348;2023-07-13T12:24:24;100957.38;;;33.08;21.63
7264;BME280;3673;52.480;13.348;2023-07-13T12:26:54;100951.72;;;33.59;20.91
7264;BME280;3673;52.480;13.348;2023-07-13T12:29:21;100958.88;;;33.79;20.87
7264;BME280;3673;52.480;13.348;2023-07-13T12:31:50;100961.72;;;32.80;22.25
7264;BME280;3673;52.480;13.348;2023-07-13T12:34:20;100953.56;;;33.78;21.37
7264;BME280;3673;52.480;13.348;2023-07-13T12:36:49;100954.06;;;34.20;21.04
7264;BME280;3673;52.480;13.348;2023-07-13T12:39:21;100960.63;;;34.63;20.54
7264;BME280;3673;52.480;13.348;2023-07-13T12:41:52;100954.94;;;33.05;21.67
7264;BME280;3673;52.480;13.348;2023-07-13T12:44:30;100956.28;;;33.78;20.92
7264;BME280;3673;52.480;13.348;2023-07-13T12:47:02;100946.69;;;33.83;21.13
7264;BME280;3673;52.480;13.348;2023-07-13T12:49:32;100969.22;;;34.22;20.11
7264;BME280;3673;52.480;13.348;2023-07-13T12:52:03;100957.97;;;34.81;19.46
7264;BME280;3673;52.480;13.348;2023-07-13T12:54:31;100961.16;;;34.30;19.99
7264;BME280;3673;52.480;13.348;2023-07-13T12:57:00;100951.41;;;33.43;20.46
7264;BME280;3673;52.480;13.348;2023-07-13T12:59:32;100954.50;;;33.00;21.07
7264;BME280;3673;52.480;13.348;2023-07-13T13:02:17;100954.63;;;32.89;21.54
7264;BME280;3673;52.480;13.348;2023-07-13T13:04:48;100956.00;;;32.13;22.38
7264;BME280;3673;52.480;13.348;2023-07-13T13:07:15;100959.31;;;31.75;22.77
7264;BME280;3673;52.480;13.348;2023-07-13T13:09:45;100956.59;;;31.54;23.25
7264;BME280;3673;52.480;13.348;2023-07-13T13:12:15;100956.78;;;31.83;22.74